Time;durP1;ratioP1;P1;durP2;ratioP2;P2;SDS_P1;SDS_P2;PMS_P1;PMS_P2;Temp;Humidity;BMP_temperature;BMP_pressure;BME280_temperature;BME280_humidity;BME280_pressure;Samples;Min_cycle;Max_cycle;Signal;HPM_P1;HPM_P2
2023/10/26 00:01:07;;;;;;;16.02;4.40;;;;;;;17.30;63.32;94138.13;5028537;28;20028;-78
2023/10/26 00:03:32;;;;;;;12.85;3.28;;;;;;;17.22;63.47;94138.63;5028820;28;20075;-77
2023/10/26 00:05:58;;;;;;;13.93;3.15;;;;;;;17.22;63.54;94140.63;5010731;28;20037;-77
2023/10/26 00:08:23;;;;;;;13.15;3.30;;;;;;;17.16;63.59;94137.84;5012072;28;20091;-78
2023/10/26 00:10:50;;;;;;;14.25;3.53;;;;;;;17.18;63.29;94142.88;5010633;28;20057;-77
2023/10/26 00:13:15;;;;;;;10.90;3.35;;;;;;;17.10;63.23;94134.28;5011724;28;20055;-77
2023/10/26 00:15:41;;;;;;;12.18;2.45;;;;;;;17.11;62.95;94135.78;5028190;28;20030;-77
2023/10/26 00:18:06;;;;;;;15.68;3.47;;;;;;;17.02;63.52;94122.13;5010695;28;20025;-77
2023/10/26 00:20:32;;;;;;;10.52;3.00;;;;;;;17.04;63.24;94130.72;5011821;28;20026;-77
2023/10/26 00:22:57;;;;;;;16.50;3.13;;;;;;;16.95;63.64;94119.81;5026796;28;20018;-77
2023/10/26 00:25:22;;;;;;;15.35;3.78;;;;;;;16.90;63.69;94140.75;5011691;28;20037;-77
2023/10/26 00:27:48;;;;;;;14.88;4.20;;;;;;;16.86;63.73;94131.91;5010281;28;20068;-77
2023/10/26 00:30:13;;;;;;;15.65;3.85;;;;;;;16.83;64.95;94143.22;5027964;28;20385;-78
2023/10/26 00:32:40;;;;;;;21.33;5.45;;;;;;;16.82;66.10;94136.16;5027649;28;20108;-77
2023/10/26 00:35:05;;;;;;;20.00;5.80;;;;;;;16.71;66.69;94136.88;5032845;28;20037;-78
2023/10/26 00:37:31;;;;;;;17.55;4.53;;;;;;;16.68;66.41;94132.25;5014635;28;20523;-77
2023/10/26 00:39:56;;;;;;;21.13;5.93;;;;;;;16.65;66.68;94134.03;5029817;28;20043;-77
2023/10/26 00:42:22;;;;;;;18.02;4.47;;;;;;;16.64;66.64;94135.28;5014461;28;20477;-77
2023/10/26 00:44:49;;;;;;;15.90;5.03;;;;;;;16.64;66.98;94142.84;5029461;28;20025;-78
2023/10/26 00:47:15;;;;;;;18.63;5.40;;;;;;;16.68;66.93;94151.69;5031779;28;20115;-77
2023/10/26 00:49:40;;;;;;;18.45;4.85;;;;;;;16.58;67.71;94147.63;5013265;28;20033;-77
2023/10/26 00:52:07;;;;;;;18.98;5.32;;;;;;;16.52;67.88;94147.56;5031107;28;20028;-77
2023/10/26 00:54:33;;;;;;;21.02;4.75;;;;;;;16.55;67.83;94152.13;5014124;28;20040;-78
2023/10/26 00:56:59;;;;;;;21.38;4.90;;;;;;;16.52;68.28;94155.91;5013385;28;20025;-78
2023/10/26 00:59:27;;;;;;;23.95;4.85;;;;;;;16.52;68.07;94147.56;5031125;28;20057;-78
2023/10/26 01:01:54;;;;;;;22.42;4.93;;;;;;;16.48;68.21;94135.94;5028382;28;20044;-77
2023/10/26 01:04:19;;;;;;;21.70;5.03;;;;;;;16.49;67.97;94128.38;5030798;28;20033;-78
2023/10/26 01:06:45;;;;;;;19.35;4.82;;;;;;;16.48;68.15;94124.09;5012971;28;20028;-78
2023/10/26 01:09:10;;;;;;;19.50;4.70;;;;;;;16.54;68.17;94116.56;5030541;28;20033;-77
2023/10/26 01:11:39;;;;;;;22.88;5.22;;;;;;;16.49;67.95;94117.28;5029560;28;20072;-78
2023/10/26 01:14:06;;;;;;;16.30;4.30;;;;;;;16.41;67.94;94114.22;4997641;28;20036;-78
2023/10/26 01:16:31;;;;;;;11.88;3.92;;;;;;;16.34;67.60;94123.72;5013788;28;20462;-78
2023/10/26 01:19:04;;;;;;;18.63;3.90;;;;;;;16.31;67.58;94107.34;5028975;28;20350;-77
2023/10/26 01:21:30;;;;;;;18.93;4.33;;;;;;;16.36;67.97;94117.72;5030461;28;20021;-78
2023/10/26 01:23:56;;;;;;;13.75;4.25;;;;;;;16.33;67.34;94129.78;5012366;28;20116;-78
2023/10/26 01:26:22;;;;;;;19.05;4.57;;;;;;;16.27;67.49;94118.66;5030651;28;20104;-78
2023/10/26 01:28:47;;;;;;;15.30;3.97;;;;;;;16.16;68.20;94111.00;5012564;28;20037;-78
2023/10/26 01:31:16;;;;;;;19.73;3.72;;;;;;;16.20;67.91;94125.41;5013123;28;20115;-78
2023/10/26 01:33:42;;;;;;;14.43;4.22;;;;;;;16.19;68.14;94120.38;5030076;28;20025;-78
2023/10/26 01:36:08;;;;;;;20.55;4.72;;;;;;;16.23;68.28;94128.44;5028643;28;20124;-78
2023/10/26 01:38:34;;;;;;;18.35;4.63;;;;;;;16.20;68.27;94122.63;5030117;28;20112;-79
2023/10/26 01:40:59;;;;;;;14.45;4.03;;;;;;;16.19;68.21;94123.91;5028391;28;20391;-77
2023/10/26 01:43:25;;;;;;;11.98;4.78;;;;;;;16.18;67.53;94119.59;5030203;28;20032;-78
2023/10/26 01:45:50;;;;;;;20.42;5.80;;;;;;;16.15;68.44;94123.34;5028688;28;20100;-77
2023/10/26 01:48:16;;;;;;;16.42;4.60;;;;;;;16.14;68.52;94113.53;5029793;28;20028;-77
2023/10/26 01:50:41;;;;;;;16.65;5.25;;;;;;;16.06;68.93;94115.22;5029477;28;20029;-77
2023/10/26 01:53:07;;;;;;;19.90;4.70;;;;;;;16.06;68.78;94114.47;5012324;28;20032;-77
2023/10/26 01:55:32;;;;;;;16.27;4.22;;;;;;;16.03;68.91;94109.91;5013487;28;20454;-77
2023/10/26 01:57:57;;;;;;;14.77;4.70;;;;;;;16.00;68.95;94122.75;5011726;28;20069;-77
2023/10/26 02:00:23;;;;;;;14.82;4.28;;;;;;;15.97;69.21;94117.41;5013487;28;20454;-76
2023/10/26 02:02:49;;;;;;;21.58;4.97;;;;;;;15.90;68.94;94121.41;5027628;28;20060;-76
2023/10/26 02:05:16;;;;;;;16.65;4.22;;;;;;;15.91;69.11;94117.38;5029998;28;20438;-77
2023/10/26 02:07:41;;;;;;;22.70;5.93;;;;;;;15.91;69.34;94122.91;5012136;28;20020;-77
2023/10/26 02:10:07;;;;;;;21.85;5.10;;;;;;;15.82;69.98;94126.59;5012219;28;20094;-77
2023/10/26 02:12:32;;;;;;;17.10;4.25;;;;;;;15.78;69.94;94114.25;5012703;28;20017;-77
2023/10/26 02:14:58;;;;;;;19.27;4.78;;;;;;;15.77;69.95;94121.00;5027950;28;20716;-79
2023/10/26 02:17:23;;;;;;;13.50;4.78;;;;;;;15.78;70.02;94119.78;5013245;28;20041;-77
2023/10/26 02:19:49;;;;;;;20.27;4.53;;;;;;;15.77;69.93;94118.25;5027371;28;20120;-79
2023/10/26 02:22:15;;;;;;;20.02;4.32;;;;;;;15.75;70.25;94117.97;5029663;28;20021;-79
2023/10/26 02:24:41;;;;;;;16.80;5.10;;;;;;;15.74;70.07;94122.00;5027447;28;20040;-78
2023/10/26 02:27:07;;;;;;;15.05;4.60;;;;;;;15.74;69.89;94128.31;5029399;28;20047;-77
2023/10/26 02:29:33;;;;;;;11.88;3.95;;;;;;;15.74;69.81;94114.44;5028713;28;20115;-77
2023/10/26 02:31:58;;;;;;;14.90;4.15;;;;;;;15.72;69.37;94105.88;5011086;28;20476;-77
2023/10/26 02:34:23;;;;;;;14.88;4.05;;;;;;;15.76;69.27;94105.66;5047139;28;20168;-78
2023/10/26 02:36:49;;;;;;;15.00;4.15;;;;;;;15.73;69.75;94112.94;5044985;28;20114;-77
2023/10/26 02:39:14;;;;;;;14.55;4.25;;;;;;;15.68;69.35;94101.81;5029175;28;20060;-78
2023/10/26 02:41:40;;;;;;;16.67;3.97;;;;;;;15.72;69.42;94099.59;5044901;28;20029;-78
2023/10/26 02:44:05;;;;;;;20.15;4.00;;;;;;;15.71;69.66;94100.81;5012601;28;20103;-77
2023/10/26 02:46:30;;;;;;;14.35;4.63;;;;;;;15.71;69.30;94103.56;5010981;28;20511;-78
2023/10/26 02:48:57;;;;;;;17.90;4.50;;;;;;;15.65;69.58;94104.31;5011444;28;20447;-79
2023/10/26 02:51:23;;;;;;;16.60;4.45;;;;;;;15.62;69.69;94102.50;5012304;28;20060;-78
2023/10/26 02:53:49;;;;;;;15.00;4.45;;;;;;;15.64;69.95;94111.09;5027176;28;20055;-77
2023/10/26 02:56:14;;;;;;;14.45;4.47;;;;;;;15.51;69.74;94096.84;5046974;28;20060;-77
2023/10/26 02:58:40;;;;;;;14.10;4.25;;;;;;;15.63;69.65;94120.66;5010600;28;20028;-79
2023/10/26 03:01:05;;;;;;;16.05;4.38;;;;;;;15.61;69.33;94119.59;5012351;28;20017;-76
2023/10/26 03:03:30;;;;;;;18.15;4.28;;;;;;;15.59;69.63;94117.28;5010517;28;20029;-78
2023/10/26 03:05:58;;;;;;;13.00;4.40;;;;;;;15.59;69.36;94124.84;5046511;28;20444;-78
2023/10/26 03:08:24;;;;;;;14.43;3.97;;;;;;;15.52;69.37;94112.19;5028084;28;20025;-77
2023/10/26 03:10:49;;;;;;;10.77;3.90;;;;;;;15.54;69.38;94112.50;5027073;28;20032;-78
2023/10/26 03:13:15;;;;;;;16.75;3.88;;;;;;;15.49;69.52;94115.22;5028470;28;20036;-78
2023/10/26 03:15:40;;;;;;;12.02;4.43;;;;;;;15.49;69.44;94110.44;5026752;28;20115;-77
2023/10/26 03:18:06;;;;;;;13.63;4.38;;;;;;;15.50;69.23;94111.94;5046336;28;20102;-78
2023/10/26 03:20:32;;;;;;;11.73;4.07;;;;;;;15.53;69.35;94110.94;5027048;28;20505;-78
2023/10/26 03:22:58;;;;;;;12.55;4.20;;;;;;;15.50;69.17;94116.72;5011715;28;20583;-77
2023/10/26 03:25:23;;;;;;;12.55;3.40;;;;;;;15.44;69.38;94110.38;5026646;28;20113;-78
2023/10/26 03:27:49;;;;;;;12.50;3.20;;;;;;;15.46;69.12;94107.84;5027856;28;20106;-78
2023/10/26 03:30:15;;;;;;;15.60;3.83;;;;;;;15.43;69.30;94117.91;5027929;28;20042;-78
2023/10/26 03:32:41;;;;;;;12.35;3.50;;;;;;;15.41;69.30;94112.84;5010510;28;20082;-78
2023/10/26 03:35:08;;;;;;;11.30;3.50;;;;;;;15.36;69.23;94105.25;5024702;28;20527;-78
2023/10/26 03:37:34;;;;;;;12.18;3.90;;;;;;;15.40;68.80;94107.81;5023255;28;20029;-78
2023/10/26 03:40:00;;;;;;;9.73;2.80;;;;;;;15.34;69.17;94113.28;5008291;28;20030;-78
2023/10/26 03:42:25;;;;;;;10.20;3.58;;;;;;;15.33;69.17;94105.47;5023229;28;20029;-77
2023/10/26 03:44:51;;;;;;;18.33;4.00;;;;;;;15.41;69.02;94109.31;5007696;28;20439;-78
2023/10/26 03:47:18;;;;;;;13.73;4.25;;;;;;;15.37;69.20;94098.47;5024047;28;20036;-78
2023/10/26 03:49:44;;;;;;;16.55;4.05;;;;;;;15.36;69.25;94093.41;5024071;28;20026;-78
2023/10/26 03:52:09;;;;;;;15.35;4.15;;;;;;;15.33;69.31;94075.78;5024591;28;20052;-79
2023/10/26 03:54:35;;;;;;;14.82;3.63;;;;;;;15.34;69.14;94077.28;5006857;28;20029;-79
2023/10/26 03:57:02;;;;;;;12.30;4.90;;;;;;;15.37;69.44;94083.88;5008313;28;20429;-79
2023/10/26 03:59:27;;;;;;;15.63;4.80;;;;;;;15.36;69.41;94068.47;5006566;28;20101;-79
2023/10/26 04:01:53;;;;;;;15.07;4.15;;;;;;;15.33;69.56;94083.31;5008345;28;20194;-79
2023/10/26 04:04:18;;;;;;;11.48;4.80;;;;;;;15.33;69.16;94059.16;5006914;28;20569;-77
2023/10/26 04:06:45;;;;;;;10.20;3.63;;;;;;;15.27;69.22;94061.13;5007730;28;20022;-78
2023/10/26 04:09:10;;;;;;;13.90;4.57;;;;;;;15.29;69.45;94074.47;5007825;28;20467;-77
2023/10/26 04:11:36;;;;;;;11.90;4.40;;;;;;;15.29;69.53;94068.91;5006170;28;20036;-78
2023/10/26 04:14:01;;;;;;;10.95;4.55;;;;;;;15.32;69.12;94079.03;5007941;28;20029;-78
2023/10/26 04:16:26;;;;;;;12.32;3.38;;;;;;;15.30;69.33;94064.91;5023014;28;20026;-79
2023/10/26 04:18:52;;;;;;;11.75;3.40;;;;;;;15.36;68.86;94074.03;5024770;28;20099;-78
2023/10/26 04:21:17;;;;;;;10.70;2.78;;;;;;;15.31;69.18;94083.81;5022679;28;20034;-79
2023/10/26 04:23:43;;;;;;;13.57;4.43;;;;;;;15.30;69.03;94076.72;5024563;28;20103;-79
2023/10/26 04:26:12;;;;;;;13.60;4.68;;;;;;;15.30;68.77;94081.50;5007003;28;20171;-78
2023/10/26 04:28:38;;;;;;;13.65;4.40;;;;;;;15.31;69.07;94083.81;5007867;28;20497;-79
2023/10/26 04:31:04;;;;;;;11.90;2.80;;;;;;;15.31;68.63;94085.78;5024539;28;20045;-78
2023/10/26 04:33:30;;;;;;;12.65;3.45;;;;;;;15.34;68.89;94076.53;5022915;28;20113;-78
2023/10/26 04:35:57;;;;;;;10.30;3.80;;;;;;;15.38;68.51;94075.06;5024319;28;20465;-79
2023/10/26 04:38:23;;;;;;;16.10;4.18;;;;;;;15.33;68.92;94073.00;5009726;28;20030;-79
2023/10/26 04:40:48;;;;;;;13.60;4.53;;;;;;;15.31;69.03;94083.81;5011506;28;20044;-78
2023/10/26 04:43:14;;;;;;;12.77;4.43;;;;;;;15.25;69.17;94079.44;5010024;28;20503;-79
2023/10/26 04:45:39;;;;;;;10.80;4.13;;;;;;;15.35;69.19;94094.66;5027640;28;20163;-78
2023/10/26 04:48:05;;;;;;;11.88;3.80;;;;;;;15.20;69.39;94085.72;5010991;28;20033;-78
2023/10/26 04:50:30;;;;;;;12.55;3.65;;;;;;;15.26;69.59;94092.06;5026398;28;20045;-78
2023/10/26 04:52:56;;;;;;;13.88;4.57;;;;;;;15.23;69.33;94077.16;5029202;28;20184;-77
2023/10/26 04:55:21;;;;;;;16.80;4.68;;;;;;;15.26;69.05;94070.66;5009117;28;20049;-78
2023/10/26 04:57:47;;;;;;;14.15;4.60;;;;;;;15.24;69.31;94086.22;5027796;28;20028;-79
2023/10/26 05:00:12;;;;;;;13.80;4.18;;;;;;;15.24;69.31;94089.75;5025993;28;20025;-78
2023/10/26 05:02:39;;;;;;;11.98;4.22;;;;;;;15.17;69.57;94092.22;5010773;28;20432;-79
2023/10/26 05:05:07;;;;;;;11.95;4.50;;;;;;;15.14;69.61;94091.94;5010076;28;20053;-79
2023/10/26 05:07:33;;;;;;;9.25;3.92;;;;;;;15.19;69.49;94092.47;5026559;28;20499;-79
2023/10/26 05:09:59;;;;;;;9.95;3.80;;;;;;;15.13;69.49;94078.56;5027347;28;20040;-78
2023/10/26 05:12:24;;;;;;;10.20;4.30;;;;;;;15.18;69.57;94090.94;5025002;28;20040;-79
2023/10/26 05:14:50;;;;;;;11.20;4.65;;;;;;;15.21;69.44;94099.06;5009607;28;20033;-79
2023/10/26 05:17:15;;;;;;;12.85;4.45;;;;;;;15.21;69.52;94099.06;5025480;28;20423;-79
2023/10/26 05:19:41;;;;;;;14.48;6.05;;;;;;;15.19;69.54;94101.53;5011003;28;20117;-79
2023/10/26 05:22:06;;;;;;;14.52;5.80;;;;;;;15.20;69.62;94110.63;5026082;28;20071;-78
2023/10/26 05:24:32;;;;;;;12.15;4.50;;;;;;;15.22;69.83;94127.50;5025366;28;20033;-78
2023/10/26 05:26:57;;;;;;;13.95;5.70;;;;;;;15.23;69.60;94131.78;5010487;28;20037;-77
2023/10/26 05:29:23;;;;;;;13.70;4.47;;;;;;;15.27;69.27;94124.78;5025515;28;20045;-79
2023/10/26 05:31:48;;;;;;;15.70;5.35;;;;;;;15.28;69.39;94126.31;5010959;28;20515;-80
2023/10/26 05:34:14;;;;;;;12.35;5.43;;;;;;;15.26;69.29;94119.75;5008386;28;20044;-79
2023/10/26 05:36:40;;;;;;;16.15;5.18;;;;;;;15.28;69.54;94129.06;5010577;28;20049;-78
2023/10/26 05:39:05;;;;;;;14.30;5.22;;;;;;;15.31;69.68;94122.56;5026815;28;20081;-79
2023/10/26 05:41:31;;;;;;;13.07;5.65;;;;;;;15.38;69.31;94136.00;5026741;28;20420;-79
2023/10/26 05:43:56;;;;;;;19.23;6.47;;;;;;;15.40;69.07;94129.97;5026106;28;20032;-79
2023/10/26 05:46:22;;;;;;;13.93;5.57;;;;;;;15.35;69.27;94128.66;5025966;28;20653;-79
2023/10/26 05:48:47;;;;;;;11.63;4.95;;;;;;;15.38;69.60;94138.75;5026048;28;20120;-79
2023/10/26 05:51:12;;;;;;;14.75;6.03;;;;;;;15.45;69.65;94143.09;5026645;28;20025;-79
2023/10/26 05:53:38;;;;;;;11.85;5.05;;;;;;;15.54;69.59;94140.19;5010053;28;20029;-79
2023/10/26 05:56:04;;;;;;;19.77;6.43;;;;;;;15.61;69.50;94150.06;5025161;28;20064;-79
2023/10/26 05:58:29;;;;;;;22.50;7.10;;;;;;;15.67;69.18;94164.78;5026561;28;20025;-77
2023/10/26 06:00:55;;;;;;;19.50;6.40;;;;;;;15.75;69.09;94165.84;5008754;28;20035;-77
2023/10/26 06:03:21;;;;;;;16.45;6.13;;;;;;;15.80;68.91;94158.84;5026079;28;20473;-77
2023/10/26 06:05:49;;;;;;;18.67;6.68;;;;;;;15.84;68.64;94167.69;5025985;28;20021;-77
2023/10/26 06:08:15;;;;;;;13.68;4.80;;;;;;;15.95;68.50;94178.13;5025246;28;20021;-77
2023/10/26 06:10:40;;;;;;;13.38;5.57;;;;;;;15.98;68.50;94175.13;5009499;28;20432;-77
2023/10/26 06:13:08;;;;;;;11.88;4.72;;;;;;;16.05;68.00;94166.34;5024652;28;20026;-77
2023/10/26 06:15:35;;;;;;;13.82;5.07;;;;;;;16.11;68.32;94177.50;5010014;28;20030;-77
2023/10/26 06:18:00;;;;;;;14.63;5.35;;;;;;;16.14;68.25;94171.75;5026473;28;20028;-76
2023/10/26 06:20:27;;;;;;;18.20;5.03;;;;;;;16.19;68.10;94168.25;5026326;28;20450;-77
2023/10/26 06:22:54;;;;;;;12.05;5.22;;;;;;;16.22;68.18;94176.84;5025858;28;20021;-79
2023/10/26 06:25:20;;;;;;;13.35;5.88;;;;;;;16.30;67.75;94170.38;5009286;28;20117;-78
2023/10/26 06:27:49;;;;;;;14.75;6.43;;;;;;;16.34;67.43;94159.78;5009737;28;20064;-78
2023/10/26 06:30:17;;;;;;;13.80;5.40;;;;;;;16.41;66.73;94155.81;5024298;28;20038;-78
2023/10/26 06:32:43;;;;;;;17.08;6.88;;;;;;;16.42;66.74;94162.88;5009451;28;20091;-76
2023/10/26 06:35:10;;;;;;;18.50;6.80;;;;;;;16.48;66.62;94171.25;5007772;28;20046;-78
2023/10/26 06:37:36;;;;;;;12.77;6.28;;;;;;;16.55;66.48;94173.56;5009822;28;20052;-78
2023/10/26 06:40:02;;;;;;;17.88;8.07;;;;;;;16.60;66.46;94178.38;5024879;28;20029;-78
2023/10/26 06:42:28;;;;;;;17.42;7.07;;;;;;;16.68;66.20;94173.88;5008650;28;20071;-79
2023/10/26 06:44:53;;;;;;;20.60;7.35;;;;;;;16.78;66.04;94185.59;5025575;28;20029;-79
2023/10/26 06:47:19;;;;;;;18.83;8.23;;;;;;;16.81;66.05;94173.50;5007788;28;20420;-78
2023/10/26 06:49:44;;;;;;;14.77;7.53;;;;;;;16.84;65.68;94166.94;5025619;28;20029;-78
2023/10/26 06:52:09;;;;;;;20.15;7.80;;;;;;;16.87;65.82;94171.53;5023970;28;20454;-78
2023/10/26 06:54:35;;;;;;;20.85;9.38;;;;;;;16.92;65.39;94191.00;5008995;28;20411;-78
2023/10/26 06:57:00;;;;;;;18.98;8.73;;;;;;;16.98;65.46;94188.25;5024286;28;20033;-78
2023/10/26 06:59:26;;;;;;;20.95;8.73;;;;;;;17.02;65.19;94185.22;5025225;28;20037;-78
2023/10/26 07:01:51;;;;;;;15.02;8.38;;;;;;;17.08;65.29;94191.56;5024161;28;20626;-78
2023/10/26 07:04:17;;;;;;;20.23;8.40;;;;;;;17.10;65.15;94184.25;5024549;28;20025;-80
2023/10/26 07:06:42;;;;;;;16.33;7.78;;;;;;;17.17;64.55;94196.91;5025144;28;20038;-78
2023/10/26 07:09:08;;;;;;;21.98;8.63;;;;;;;17.23;64.29;94195.69;5007284;28;20029;-79
2023/10/26 07:11:33;;;;;;;21.25;8.43;;;;;;;17.25;64.42;94195.16;5026652;28;20471;-78
2023/10/26 07:13:58;;;;;;;19.90;9.30;;;;;;;17.32;64.20;94197.50;5006850;28;20031;-78
2023/10/26 07:16:24;;;;;;;21.83;9.10;;;;;;;17.34;64.43;94191.44;5025394;28;20045;-78
2023/10/26 07:18:50;;;;;;;20.90;8.85;;;;;;;17.45;64.02;94200.56;5023946;28;20765;-78
2023/10/26 07:21:16;;;;;;;19.95;9.63;;;;;;;17.47;64.09;94188.94;5026412;28;20025;-78
2023/10/26 07:23:41;;;;;;;24.80;9.50;;;;;;;17.54;64.08;94199.56;5025852;28;20053;-78
2023/10/26 07:26:07;;;;;;;21.10;9.85;;;;;;;17.66;63.92;94205.94;5007524;28;20053;-78
2023/10/26 07:28:32;;;;;;;20.02;9.07;;;;;;;17.68;63.67;94189.53;5008525;28;20029;-78
2023/10/26 07:30:58;;;;;;;21.05;9.98;;;;;;;17.75;63.33;94189.81;5023659;28;20049;-78
2023/10/26 07:33:23;;;;;;;22.92;10.32;;;;;;;17.79;63.41;94192.38;5025254;28;20029;-78
2023/10/26 07:35:55;;;;;;;18.50;9.45;;;;;;;17.86;62.78;94182.78;5006451;28;20136;-78
2023/10/26 07:38:21;;;;;;;18.77;8.10;;;;;;;17.88;62.67;94186.56;5025304;28;20039;-78
2023/10/26 07:40:51;;;;;;;16.10;8.18;;;;;;;17.94;62.95;94181.00;5023904;28;20025;-78
2023/10/26 07:43:16;;;;;;;17.02;9.18;;;;;;;17.97;62.58;94191.13;5023833;28;20116;-78
2023/10/26 07:45:42;;;;;;;20.98;9.45;;;;;;;18.00;62.39;94179.00;5024602;28;20116;-78
2023/10/26 07:48:07;;;;;;;18.65;9.18;;;;;;;18.02;62.59;94182.81;5023134;28;20036;-78
2023/10/26 07:50:33;;;;;;;18.85;8.13;;;;;;;18.07;62.07;94183.31;5024976;28;20535;-78
2023/10/26 07:52:58;;;;;;;17.40;7.60;;;;;;;18.09;61.88;94175.22;5022753;28;20025;-78
2023/10/26 07:55:23;;;;;;;15.65;5.60;;;;;;;18.20;59.85;94172.44;5026288;28;20022;-77
2023/10/26 07:57:49;;;;;;;13.57;2.60;;;;;;;18.28;54.95;94168.66;5023122;28;20186;-78
2023/10/26 08:00:14;;;;;;;11.50;3.85;;;;;;;18.42;55.30;94157.78;5024496;28;20033;-78
2023/10/26 08:02:40;;;;;;;10.52;2.85;;;;;;;18.50;54.37;94148.41;5007585;28;20516;-79
2023/10/26 08:05:06;;;;;;;11.68;3.03;;;;;;;18.79;53.83;94168.63;5006920;28;20037;-78
2023/10/26 08:07:32;;;;;;;11.35;3.17;;;;;;;18.92;53.10;94171.63;5025132;28;20468;-77
2023/10/26 08:09:57;;;;;;;7.55;1.92;;;;;;;19.02;51.35;94160.97;5023190;28;20033;-81
2023/10/26 08:12:25;;;;;;;10.00;2.08;;;;;;;19.15;50.90;94161.19;5027160;28;20055;-80
2023/10/26 08:14:51;;;;;;;11.32;2.20;;;;;;;19.33;50.88;94154.31;5010622;28;20428;-80
2023/10/26 08:17:17;;;;;;;7.75;2.25;;;;;;;19.47;50.35;94138.53;5012536;28;20037;-80
2023/10/26 08:19:42;;;;;;;6.60;1.92;;;;;;;19.60;49.38;94124.78;5029185;28;20518;-79
2023/10/26 08:22:09;;;;;;;10.15;2.83;;;;;;;19.54;49.17;94127.59;5011202;28;20124;-79
2023/10/26 08:24:35;;;;;;;8.32;1.95;;;;;;;19.62;49.49;94125.81;5029786;28;20022;-83
2023/10/26 08:27:00;;;;;;;13.88;2.85;;;;;;;19.67;49.31;94135.41;5009920;28;20095;-77
2023/10/26 08:29:28;;;;;;;9.18;2.63;;;;;;;19.82;49.36;94135.06;5029911;28;20044;-79
2023/10/26 08:31:53;;;;;;;12.55;2.10;;;;;;;20.12;48.12;94124.69;5026450;28;20046;-77
2023/10/26 08:34:19;;;;;;;8.18;2.08;;;;;;;20.67;46.67;94130.34;5028377;28;20029;-78
2023/10/26 08:36:46;;;;;;;8.32;2.22;;;;;;;21.54;45.28;94136.75;5010157;28;20045;-78
2023/10/26 08:39:12;;;;;;;9.10;1.73;;;;;;;21.74;43.49;94129.91;5026870;28;20025;-78
2023/10/26 08:41:38;;;;;;;6.15;1.70;;;;;;;21.41;44.36;94128.28;5011443;28;20087;-80
2023/10/26 08:44:04;;;;;;;10.02;2.20;;;;;;;21.27;45.22;94135.78;5026271;28;20025;-79
2023/10/26 08:46:30;;;;;;;8.98;2.10;;;;;;;20.99;45.74;94118.59;5028041;28;20041;-78
2023/10/26 08:48:56;;;;;;;8.38;2.05;;;;;;;20.81;45.82;94117.25;5025975;28;20037;-78
2023/10/26 08:51:22;;;;;;;8.48;2.17;;;;;;;20.73;45.57;94131.06;5028035;28;20052;-78
2023/10/26 08:53:47;;;;;;;11.13;2.70;;;;;;;20.67;46.39;94117.16;5026007;28;20531;-79
2023/10/26 08:56:15;;;;;;;8.20;2.20;;;;;;;20.80;46.01;94110.91;5026989;28;20412;-78
2023/10/26 08:58:42;;;;;;;7.30;2.00;;;;;;;21.05;45.85;94097.69;4990895;28;20048;-78
2023/10/26 09:01:07;;;;;;;10.05;2.10;;;;;;;22.56;42.84;94102.44;5008425;28;20089;-79
2023/10/26 09:03:34;;;;;;;12.90;2.25;;;;;;;24.43;38.17;94110.06;5007850;28;20160;-79
2023/10/26 09:06:00;;;;;;;9.77;2.38;;;;;;;25.81;35.93;94103.28;5005901;28;20033;-78
2023/10/26 09:08:29;;;;;;;9.13;2.08;;;;;;;26.25;34.00;94111.66;4991593;28;20022;-79
2023/10/26 09:10:55;;;;;;;11.25;2.53;;;;;;;27.52;31.56;94107.88;5005746;28;20033;-78
2023/10/26 09:13:25;;;;;;;10.88;2.25;;;;;;;28.20;30.21;94095.53;5007853;28;20030;-77
2023/10/26 09:15:52;;;;;;;11.40;2.45;;;;;;;27.85;30.85;94100.25;5006592;28;20084;-77
2023/10/26 09:18:19;;;;;;;10.02;2.03;;;;;;;29.29;28.83;94099.81;5007157;28;20081;-77
2023/10/26 09:21:02;;;;;;;8.25;1.90;;;;;;;28.37;30.14;94096.97;5007492;28;20096;-76
2023/10/26 09:23:29;;;;;;;8.35;1.98;;;;;;;28.58;29.36;94092.50;5006143;28;20041;-76
2023/10/26 09:25:59;;;;;;;8.48;1.50;;;;;;;28.61;28.84;94093.41;5007542;28;20088;-78
2023/10/26 09:28:25;;;;;;;8.10;1.77;;;;;;;27.26;30.90;94083.69;5007172;28;20025;-78
2023/10/26 09:30:57;;;;;;;10.35;1.73;;;;;;;27.86;30.13;94075.56;4991185;28;20416;-79
2023/10/26 09:33:26;;;;;;;10.35;2.03;;;;;;;28.01;29.24;94098.84;4996251;28;20175;-76
2023/10/26 09:35:52;;;;;;;5.55;1.42;;;;;;;28.97;27.97;94072.41;5025299;28;20076;-76
2023/10/26 09:38:32;;;;;;;9.10;1.88;;;;;;;27.63;30.18;94079.22;5026927;28;20480;-76
2023/10/26 09:40:59;;;;;;;7.82;1.67;;;;;;;27.43;30.56;94074.59;5008635;28;20091;-80
2023/10/26 09:43:24;;;;;;;5.22;1.85;;;;;;;29.00;28.66;94069.16;5027218;28;20029;-80
2023/10/26 09:45:50;;;;;;;10.80;2.17;;;;;;;30.33;26.84;94066.47;5025778;28;20554;-81
2023/10/26 09:48:15;;;;;;;9.20;4.10;;;;;;;30.64;26.24;94083.03;5027875;28;20118;-82
2023/10/26 09:50:41;;;;;;;7.57;2.20;;;;;;;31.53;24.67;94091.19;5026438;28;20033;-82
2023/10/26 09:53:07;;;;;;;6.43;1.52;;;;;;;31.59;25.19;94081.00;5025563;28;20022;-81
2023/10/26 09:55:33;;;;;;;8.07;1.80;;;;;;;31.65;24.83;94083.56;5027603;28;20083;-80
2023/10/26 09:58:08;;;;;;;8.70;2.20;;;;;;;31.91;24.72;94064.88;5025395;28;20026;-79
2023/10/26 10:00:34;;;;;;;8.15;1.98;;;;;;;33.15;23.16;94058.59;5026642;28;20123;-77
2023/10/26 10:03:17;;;;;;;7.18;1.40;;;;;;;33.12;22.21;94060.59;5008874;28;20480;-77
2023/10/26 10:05:44;;;;;;;10.00;1.90;;;;;;;33.67;21.91;94046.44;5026610;28;20032;-77
2023/10/26 10:08:09;;;;;;;8.70;1.80;;;;;;;34.03;21.60;94040.25;5027754;28;20025;-81
2023/10/26 10:10:35;;;;;;;8.40;1.65;;;;;;;34.26;20.86;94041.66;5008699;28;20415;-78
2023/10/26 10:13:01;;;;;;;5.47;1.30;;;;;;;33.41;21.57;94034.78;5026511;28;20028;-77
2023/10/26 10:15:53;;;;;;;6.05;1.88;;;;;;;32.45;22.42;94041.72;5008207;28;20116;-76
2023/10/26 10:18:19;;;;;;;10.53;2.10;;;;;;;32.86;21.89;94050.97;5006401;28;20381;-77
2023/10/26 10:20:46;;;;;;;5.18;1.52;;;;;;;32.73;21.89;94018.06;5008939;28;20034;-76
2023/10/26 10:23:29;;;;;;;7.70;1.73;;;;;;;33.23;21.96;94025.75;5025800;28;20080;-77
2023/10/26 10:25:56;;;;;;;5.68;1.58;;;;;;;33.87;21.04;94024.94;5026452;28;20025;-78
2023/10/26 10:28:21;;;;;;;5.25;1.10;;;;;;;33.41;21.29;94017.69;5024408;28;20041;-77
2023/10/26 10:30:57;;;;;;;6.10;1.88;;;;;;;33.85;21.25;94007.72;5026193;28;20033;-78
2023/10/26 10:33:25;;;;;;;5.88;1.50;;;;;;;34.89;20.49;94008.47;5007623;28;20044;-78
2023/10/26 10:35:53;;;;;;;9.70;2.38;;;;;;;34.73;20.09;94002.53;5025828;28;20041;-78
2023/10/26 10:38:20;;;;;;;8.85;2.05;;;;;;;33.76;21.49;94008.53;5024955;28;20033;-78
2023/10/26 10:40:55;;;;;;;5.55;1.88;;;;;;;34.51;20.92;93995.47;5008834;28;20080;-77
2023/10/26 10:43:46;;;;;;;11.02;2.00;;;;;;;35.37;19.99;93995.59;5027148;28;20037;-79
2023/10/26 10:46:20;;;;;;;8.02;2.08;;;;;;;35.54;19.68;93995.19;5023515;28;20030;-78
2023/10/26 10:49:05;;;;;;;7.40;1.65;;;;;;;35.62;19.46;93977.78;5009109;28;20416;-77
2023/10/26 10:51:39;;;;;;;8.45;2.20;;;;;;;36.50;19.37;94008.41;5025845;28;20029;-77
2023/10/26 10:54:17;;;;;;;11.90;1.80;;;;;;;37.10;19.00;93970.03;5024208;28;20123;-78
2023/10/26 10:56:46;;;;;;;3.50;1.50;;;;;;;37.51;17.94;93964.25;5027386;28;20091;-78
2023/10/26 10:59:32;;;;;;;6.75;1.40;;;;;;;36.89;18.52;93968.28;5023739;28;20029;-78
2023/10/26 11:02:09;;;;;;;6.75;1.60;;;;;;;37.50;17.94;93965.63;5026529;28;20017;-78
2023/10/26 11:04:35;;;;;;;10.32;2.10;;;;;;;38.17;17.55;93954.53;5025350;28;20018;-78
2023/10/26 11:07:01;;;;;;;4.60;1.60;;;;;;;38.58;16.74;93952.81;5024406;28;20495;-78
2023/10/26 11:09:37;;;;;;;5.32;1.60;;;;;;;36.83;18.68;93965.06;5026032;28;20029;-78
2023/10/26 11:12:12;;;;;;;6.13;1.98;;;;;;;36.26;19.02;93953.44;5023979;28;20029;-77
2023/10/26 11:14:50;;;;;;;4.88;1.20;;;;;;;36.37;19.08;93958.34;5025774;28;20025;-77
2023/10/26 11:17:17;;;;;;;7.07;2.30;;;;;;;35.93;19.54;93965.22;5007868;28;20063;-79
2023/10/26 11:19:43;;;;;;;4.47;2.13;;;;;;;35.76;20.07;93954.97;5024409;28;20025;-78
2023/10/26 11:22:08;;;;;;;6.28;1.40;;;;;;;35.80;20.12;93949.47;5025384;28;20074;-79
2023/10/26 11:24:35;;;;;;;7.75;1.80;;;;;;;34.41;20.96;93961.34;5006552;28;20079;-79